Time;durP1;ratioP1;P1;durP2;ratioP2;P2;SDS_P1;SDS_P2;PMS_P1;PMS_P2;Temp;Humidity;BMP_temperature;BMP_pressure;BME280_temperature;BME280_humidity;BME280_pressure;Samples;Min_cycle;Max_cycle;Signal;HPM_P1;HPM_P2
2022/08/05 00:01:20;;;;;;;2.75;1.27;;;19.10;99.90;;;;;;5019559;28;20037;-74
2022/08/05 00:03:49;;;;;;;2.30;1.20;;;19.00;99.90;;;;;;5017934;28;20103;-74
2022/08/05 00:06:17;;;;;;;4.10;1.45;;;19.00;99.90;;;;;;5006332;28;20034;-74
2022/08/05 00:08:43;;;;;;;2.15;1.25;;;19.00;99.90;;;;;;5033482;28;20079;-73
2022/08/05 00:11:10;;;;;;;;;;;19.00;99.90;;;;;;5007542;28;20120;-74
2022/08/05 00:13:37;;;;;;;6.25;1.20;;;19.00;99.90;;;;;;5023302;28;19927;-74
2022/08/05 00:16:04;;;;;;;5.35;2.20;;;19.00;99.90;;;;;;5019133;28;20056;-74
2022/08/05 00:18:30;;;;;;;2.05;1.20;;;18.90;99.90;;;;;;5020946;28;20398;-74
2022/08/05 00:20:56;;;;;;;2.50;1.42;;;18.90;99.90;;;;;;5017905;28;20037;-74
2022/08/05 00:23:22;;;;;;;2.17;1.27;;;18.90;99.90;;;;;;5011258;28;20050;-74
2022/08/05 00:25:48;;;;;;;3.28;1.40;;;18.90;99.90;;;;;;5012959;28;20617;-74
2022/08/05 00:28:14;;;;;;;3.40;1.50;;;18.90;99.90;;;;;;5013060;28;20045;-74
2022/08/05 00:30:40;;;;;;;3.25;1.40;;;18.90;99.90;;;;;;5017578;28;20393;-74
2022/08/05 00:33:06;;;;;;;;;;;18.90;99.90;;;;;;5010897;28;20551;-74
2022/08/05 00:35:31;;;;;;;5.78;1.85;;;18.80;99.90;;;;;;5023471;28;20011;-74
2022/08/05 00:37:57;;;;;;;2.17;1.20;;;18.80;99.90;;;;;;5000447;28;20192;-74
2022/08/05 00:40:24;;;;;;;4.68;1.60;;;18.80;99.90;;;;;;5020099;28;20393;-74
2022/08/05 00:42:50;;;;;;;2.53;1.33;;;18.80;99.90;;;;;;5024871;28;20041;-74
2022/08/05 00:45:16;;;;;;;4.05;1.25;;;18.80;99.90;;;;;;5021565;28;20068;-74
2022/08/05 00:47:41;;;;;;;4.90;1.40;;;18.80;99.90;;;;;;5023012;28;20048;-74
2022/08/05 00:50:08;;;;;;;2.47;1.00;;;18.70;99.90;;;;;;5022423;28;20395;-74
2022/08/05 00:52:34;;;;;;;3.47;1.20;;;18.80;99.90;;;;;;5003966;28;20550;-75
2022/08/05 00:54:59;;;;;;;5.60;1.38;;;18.80;99.90;;;;;;5023642;28;20045;-74
2022/08/05 00:57:25;;;;;;;4.78;1.63;;;18.70;99.90;;;;;;5025209;28;20046;-73
2022/08/05 00:59:51;;;;;;;3.50;1.30;;;18.70;99.90;;;;;;5017869;28;20123;-73
2022/08/05 01:02:17;;;;;;;4.15;1.13;;;18.70;99.90;;;;;;5024122;28;20063;-73
2022/08/05 01:04:43;;;;;;;2.50;1.10;;;18.70;99.90;;;;;;5013912;28;20060;-73
2022/08/05 01:07:08;;;;;;;4.15;1.30;;;18.70;99.90;;;;;;5006867;28;20119;-74
2022/08/05 01:09:34;;;;;;;1.75;0.93;;;18.70;99.90;;;;;;5004740;28;20099;-73
2022/08/05 01:12:07;;;;;;;2.85;1.10;;;18.70;99.90;;;;;;5028370;28;20037;-73
2022/08/05 01:15:00;;;;;;;2.45;1.45;;;18.70;99.90;;;;;;5023513;28;20402;-73
2022/08/05 01:17:37;;;;;;;4.63;1.17;;;18.80;99.90;;;;;;5027698;28;20124;-73
2022/08/05 01:20:17;;;;;;;4.85;1.30;;;18.80;99.90;;;;;;5006016;28;20038;-73
2022/08/05 01:23:10;;;;;;;6.22;1.40;;;18.80;99.90;;;;;;5019862;28;20534;-72
2022/08/05 01:25:54;;;;;;;1.70;1.20;;;18.80;99.90;;;;;;5012543;28;20045;-73
2022/08/05 01:28:47;;;;;;;2.00;1.27;;;18.90;99.90;;;;;;5007902;28;20045;-73
2022/08/05 01:31:32;;;;;;;4.70;1.08;;;18.90;99.90;;;;;;5020161;28;20493;-73
2022/08/05 01:34:08;;;;;;;2.97;0.82;;;18.80;99.90;;;;;;5022977;28;20041;-73
2022/08/05 01:36:43;;;;;;;5.90;1.30;;;18.90;99.90;;;;;;5019479;28;20069;-73
2022/08/05 01:39:11;;;;;;;2.90;1.08;;;18.90;99.90;;;;;;5014645;28;20401;-74
2022/08/05 01:41:38;;;;;;;3.33;0.98;;;18.90;99.90;;;;;;5026210;28;20255;-73
2022/08/05 01:44:06;;;;;;;2.13;0.95;;;18.90;99.90;;;;;;5038820;28;20045;-74
2022/08/05 01:46:33;;;;;;;3.67;1.17;;;18.90;99.90;;;;;;5029328;28;20041;-74
2022/08/05 01:49:00;;;;;;;3.28;1.10;;;18.90;99.90;;;;;;5028674;28;20132;-74
2022/08/05 01:51:28;;;;;;;2.85;1.20;;;18.90;99.90;;;;;;5029405;28;20099;-73
2022/08/05 01:53:55;;;;;;;3.28;0.93;;;18.90;99.90;;;;;;5000448;28;20131;-74
2022/08/05 01:56:23;;;;;;;1.75;1.00;;;18.90;99.90;;;;;;5028194;28;20033;-74
2022/08/05 01:58:51;;;;;;;2.25;1.05;;;18.90;99.90;;;;;;5026060;28;20053;-74
2022/08/05 02:01:19;;;;;;;2.05;0.70;;;18.80;99.90;;;;;;5021721;28;20490;-74
2022/08/05 02:03:47;;;;;;;2.35;1.15;;;18.90;99.90;;;;;;5017231;28;20029;-73
2022/08/05 02:06:14;;;;;;;1.83;1.08;;;18.90;99.90;;;;;;5019055;28;20464;-73
2022/08/05 02:08:41;;;;;;;3.22;1.45;;;18.80;99.90;;;;;;5019813;28;20034;-74
2022/08/05 02:11:11;;;;;;;3.03;1.20;;;18.80;99.90;;;;;;5023428;28;20033;-74
2022/08/05 02:14:01;;;;;;;2.85;1.50;;;18.80;99.90;;;;;;5022976;28;20563;-74
2022/08/05 02:16:38;;;;;;;2.30;1.08;;;18.80;99.90;;;;;;5015953;28;20037;-74
2022/08/05 02:19:19;;;;;;;6.10;1.45;;;18.80;99.90;;;;;;5027888;28;20081;-74
2022/08/05 02:22:03;;;;;;;2.65;1.05;;;18.70;99.90;;;;;;5027561;28;20045;-74
2022/08/05 02:24:36;;;;;;;2.88;1.30;;;18.70;99.90;;;;;;5008249;28;20041;-74
2022/08/05 02:27:07;;;;;;;2.80;1.42;;;18.70;99.90;;;;;;5013235;28;20033;-74
2022/08/05 02:29:35;;;;;;;3.22;1.30;;;18.70;99.90;;;;;;5019026;28;20574;-74
2022/08/05 02:32:02;;;;;;;5.63;2.42;;;18.60;99.90;;;;;;5020884;28;20038;-73
2022/08/05 02:34:31;;;;;;;4.05;1.48;;;18.60;99.90;;;;;;5118259;22;20041;-74
2022/08/05 02:37:01;;;;;;;4.05;1.17;;;18.60;99.90;;;;;;5049044;28;20103;-74
2022/08/05 02:39:33;;;;;;;3.03;1.27;;;18.60;99.90;;;;;;5048987;28;20045;-74
2022/08/05 02:42:00;;;;;;;2.42;1.40;;;18.60;99.90;;;;;;5041714;28;20037;-74
2022/08/05 02:44:27;;;;;;;2.13;1.40;;;18.60;99.90;;;;;;5044047;28;20382;-74
2022/08/05 02:46:56;;;;;;;1.83;1.33;;;18.50;99.90;;;;;;5048672;28;20037;-74
2022/08/05 02:49:23;;;;;;;2.17;1.33;;;18.60;99.90;;;;;;5032534;28;20063;-75
2022/08/05 02:51:49;;;;;;;3.40;1.60;;;18.50;99.90;;;;;;5039869;28;20084;-75
2022/08/05 02:54:16;;;;;;;4.60;1.45;;;18.40;99.90;;;;;;5035828;28;20049;-74
2022/08/05 02:56:42;;;;;;;;;;;18.40;99.90;;;;;;5029638;28;20055;-74
2022/08/05 02:59:09;;;;;;;2.50;1.42;;;18.40;99.90;;;;;;5030344;28;19921;-74
2022/08/05 03:01:39;;;;;;;4.53;2.05;;;18.30;99.90;;;;;;5036220;28;20041;-74
2022/08/05 03:04:07;;;;;;;3.50;1.88;;;18.30;99.90;;;;;;5028666;28;20401;-74
2022/08/05 03:06:34;;;;;;;3.53;1.40;;;18.40;99.90;;;;;;5030088;28;20504;-74
2022/08/05 03:08:59;;;;;;;2.90;1.50;;;18.30;99.90;;;;;;5045948;28;20048;-74
2022/08/05 03:11:26;;;;;;;2.58;1.40;;;18.40;99.90;;;;;;5037193;28;20037;-74
2022/08/05 03:13:52;;;;;;;2.40;1.60;;;18.30;99.90;;;;;;5045841;28;20160;-75
2022/08/05 03:16:18;;;;;;;4.70;1.70;;;18.40;99.90;;;;;;5041923;28;20029;-75
2022/08/05 03:18:44;;;;;;;;;;;18.30;99.90;;;;;;5057519;28;20036;-74
2022/08/05 03:21:10;;;;;;;2.50;1.55;;;18.40;99.90;;;;;;5028288;28;19940;-74
2022/08/05 03:23:39;;;;;;;4.50;1.52;;;18.30;99.90;;;;;;5028070;28;20513;-75
2022/08/05 03:26:05;;;;;;;4.63;1.95;;;18.30;99.90;;;;;;5042804;28;20052;-75
2022/08/05 03:28:32;;;;;;;3.88;1.73;;;18.30;99.90;;;;;;5039442;28;20106;-75
2022/08/05 03:30:59;;;;;;;2.95;1.50;;;18.30;99.90;;;;;;5029265;28;20052;-75
2022/08/05 03:33:27;;;;;;;2.47;1.48;;;18.30;99.90;;;;;;5035655;28;20083;-75
2022/08/05 03:35:55;;;;;;;2.92;1.60;;;18.30;99.90;;;;;;5047768;28;20029;-75
2022/08/05 03:38:22;;;;;;;2.28;1.55;;;18.30;99.90;;;;;;5033767;28;20056;-75
2022/08/05 03:40:47;;;;;;;;;;;18.30;99.90;;;;;;5030192;28;20041;-74
2022/08/05 03:43:14;;;;;;;1.95;1.60;;;18.30;99.90;;;;;;5034118;28;19924;-74
2022/08/05 03:45:39;;;;;;;2.28;1.50;;;18.20;99.90;;;;;;5042546;28;20102;-75
2022/08/05 03:48:07;;;;;;;6.32;1.80;;;18.20;99.90;;;;;;5049653;28;20041;-75
2022/08/05 03:50:43;;;;;;;3.17;1.73;;;18.20;99.90;;;;;;5029821;28;20454;-74
2022/08/05 03:53:14;;;;;;;2.85;1.65;;;18.20;99.90;;;;;;5047498;28;20107;-74
2022/08/05 03:55:48;;;;;;;4.13;1.65;;;18.20;99.90;;;;;;5047458;28;20053;-74
2022/08/05 03:58:16;;;;;;;3.40;1.42;;;18.20;99.90;;;;;;5041465;28;20116;-75
2022/08/05 04:00:44;;;;;;;2.40;1.70;;;18.20;99.90;;;;;;5037038;28;20056;-74
2022/08/05 04:03:12;;;;;;;3.03;1.90;;;18.10;99.90;;;;;;5033280;28;20099;-75
2022/08/05 04:05:38;;;;;;;6.25;1.60;;;18.10;99.90;;;;;;5037061;28;20099;-75
2022/08/05 04:08:09;;;;;;;3.00;1.95;;;18.10;99.90;;;;;;5035547;28;20033;-75
2022/08/05 04:10:36;;;;;;;3.85;1.63;;;18.10;99.90;;;;;;5062188;28;20484;-75
2022/08/05 04:13:02;;;;;;;5.85;1.92;;;18.10;99.90;;;;;;5042721;28;20148;-75
2022/08/05 04:15:28;;;;;;;;;;;18.10;99.90;;;;;;5019109;28;20037;-75
2022/08/05 04:18:00;;;;;;;3.38;2.03;;;18.00;99.90;;;;;;5032442;28;20284;-75
2022/08/05 04:20:28;;;;;;;4.82;1.50;;;18.00;99.90;;;;;;5028335;28;20077;-74
2022/08/05 04:22:54;;;;;;;2.47;1.50;;;18.00;99.90;;;;;;5028933;28;20071;-74
2022/08/05 04:25:20;;;;;;;2.72;1.75;;;18.00;99.90;;;;;;5054973;28;20036;-74
2022/08/05 04:27:45;;;;;;;;;;;18.00;99.90;;;;;;5055854;28;20135;-74
2022/08/05 04:30:11;;;;;;;4.63;1.67;;;18.00;99.90;;;;;;5027082;28;20428;-74
2022/08/05 04:32:37;;;;;;;3.55;1.52;;;18.00;99.90;;;;;;5035558;28;20273;-74
2022/08/05 04:35:03;;;;;;;3.10;1.63;;;18.00;99.90;;;;;;5030366;28;20196;-75
2022/08/05 04:37:28;;;;;;;2.75;1.60;;;18.00;99.90;;;;;;5030280;28;20053;-74
2022/08/05 04:39:55;;;;;;;4.65;1.60;;;18.00;99.90;;;;;;5043577;28;20038;-75
2022/08/05 04:42:20;;;;;;;2.30;1.60;;;18.00;99.90;;;;;;5050188;28;20033;-75
2022/08/05 04:44:46;;;;;;;2.17;1.70;;;18.00;99.90;;;;;;5047202;28;20098;-75
2022/08/05 04:47:11;;;;;;;4.65;1.77;;;18.00;99.90;;;;;;5045236;28;20037;-74
2022/08/05 04:49:38;;;;;;;2.72;2.15;;;18.00;99.90;;;;;;5045933;28;20041;-75
2022/08/05 04:52:04;;;;;;;3.50;2.08;;;18.10;99.90;;;;;;5036362;28;20038;-74
2022/08/05 04:54:30;;;;;;;;;;;18.00;99.90;;;;;;5062604;28;20115;-74
2022/08/05 04:56:55;;;;;;;3.30;1.85;;;17.90;99.90;;;;;;5067811;28;20042;-74
2022/08/05 04:59:21;;;;;;;5.60;1.65;;;17.90;99.90;;;;;;5049611;28;20050;-75
2022/08/05 05:01:57;;;;;;;2.55;1.73;;;17.90;99.90;;;;;;5026662;28;20037;-74
2022/08/05 05:04:23;;;;;;;3.90;1.95;;;17.90;99.90;;;;;;5041718;28;20048;-74
2022/08/05 05:06:48;;;;;;;4.25;1.95;;;17.90;99.90;;;;;;5020448;28;20041;-74
2022/08/05 05:09:14;;;;;;;3.20;1.92;;;17.80;99.90;;;;;;5010499;28;20045;-75
2022/08/05 05:11:40;;;;;;;3.10;2.25;;;17.90;99.90;;;;;;5029677;28;20091;-74
2022/08/05 05:14:05;;;;;;;2.65;1.77;;;17.80;99.90;;;;;;5046587;28;20127;-74
2022/08/05 05:16:31;;;;;;;3.20;1.83;;;17.70;99.90;;;;;;5037768;28;20559;-74
2022/08/05 05:18:57;;;;;;;4.35;2.03;;;17.70;99.90;;;;;;5027680;28;20043;-75
2022/08/05 05:21:22;;;;;;;3.60;2.20;;;17.70;99.90;;;;;;5028190;28;20455;-75
2022/08/05 05:23:48;;;;;;;4.82;1.33;;;17.80;99.90;;;;;;5044340;28;20111;-74
2022/08/05 05:26:14;;;;;;;2.70;1.45;;;17.70;99.90;;;;;;5042042;28;20184;-75
2022/08/05 05:28:39;;;;;;;3.45;1.95;;;17.70;99.90;;;;;;5044440;28;20466;-74
2022/08/05 05:31:05;;;;;;;3.55;1.85;;;17.60;99.90;;;;;;5027571;28;20048;-74
2022/08/05 05:33:30;;;;;;;2.33;1.73;;;17.70;99.90;;;;;;5043963;28;20096;-74
2022/08/05 05:35:56;;;;;;;2.33;1.63;;;17.70;99.90;;;;;;5046216;28;20354;-72
2022/08/05 05:38:22;;;;;;;1.88;1.52;;;17.70;99.90;;;;;;5040607;28;20135;-72
2022/08/05 05:40:47;;;;;;;3.72;1.95;;;17.60;99.90;;;;;;5038347;28;20052;-72
2022/08/05 05:43:13;;;;;;;3.00;1.55;;;17.60;99.90;;;;;;5047104;28;20342;-72
2022/08/05 05:45:38;;;;;;;4.25;1.92;;;17.70;99.90;;;;;;5034288;28;20137;-72
2022/08/05 05:48:06;;;;;;;3.05;1.77;;;17.70;99.90;;;;;;5037867;28;20366;-71
2022/08/05 05:50:33;;;;;;;1.75;1.45;;;17.60;99.90;;;;;;5036501;28;20052;-72
2022/08/05 05:52:58;;;;;;;4.63;1.60;;;17.70;99.90;;;;;;5029205;28;20136;-73
2022/08/05 05:55:24;;;;;;;1.73;1.27;;;17.70;99.90;;;;;;5033353;28;20746;-73
2022/08/05 05:57:50;;;;;;;7.78;1.60;;;17.80;99.90;;;;;;5030460;28;20061;-72
2022/08/05 06:00:19;;;;;;;2.78;1.17;;;17.70;99.90;;;;;;5032658;28;20244;-74
2022/08/05 06:02:46;;;;;;;2.17;1.33;;;17.70;99.90;;;;;;5018367;28;20033;-72
2022/08/05 06:05:13;;;;;;;2.92;1.65;;;17.70;99.90;;;;;;5035288;28;20107;-71
2022/08/05 06:07:40;;;;;;;1.50;0.88;;;17.80;99.90;;;;;;5046511;28;20033;-71
2022/08/05 06:10:07;;;;;;;2.55;1.30;;;17.80;99.90;;;;;;5042301;28;20403;-71
2022/08/05 06:12:35;;;;;;;2.35;1.08;;;17.90;99.90;;;;;;5037269;28;20145;-71
2022/08/05 06:15:03;;;;;;;2.45;0.98;;;17.90;99.90;;;;;;5034492;28;20504;-71
2022/08/05 06:17:29;;;;;;;2.05;0.90;;;17.90;99.90;;;;;;5033691;28;20568;-71
2022/08/05 06:19:54;;;;;;;2.08;0.77;;;18.00;99.90;;;;;;5044423;28;20124;-71
2022/08/05 06:22:28;;;;;;;1.60;0.70;;;17.90;99.90;;;;;;5046165;28;20059;-71
2022/08/05 06:24:54;;;;;;;2.13;0.93;;;18.00;99.90;;;;;;5022942;28;20077;-72
2022/08/05 06:27:19;;;;;;;2.85;1.10;;;18.00;99.90;;;;;;5039303;28;20126;-71
2022/08/05 06:29:45;;;;;;;1.20;0.70;;;18.10;99.90;;;;;;5035981;28;20041;-71
2022/08/05 06:32:11;;;;;;;0.85;0.60;;;18.20;99.90;;;;;;5033939;28;20417;-72
2022/08/05 06:34:37;;;;;;;3.05;0.60;;;18.20;99.90;;;;;;5049918;28;20029;-71
2022/08/05 06:37:02;;;;;;;1.90;0.60;;;18.20;99.90;;;;;;5036730;28;20109;-71
2022/08/05 06:39:28;;;;;;;1.05;0.60;;;18.30;99.90;;;;;;5048348;28;20123;-71
2022/08/05 06:42:00;;;;;;;1.08;0.50;;;18.30;99.90;;;;;;5040690;28;20056;-71
2022/08/05 06:44:26;;;;;;;2.67;0.70;;;18.40;99.90;;;;;;5046620;28;20045;-71
2022/08/05 06:46:52;;;;;;;0.90;0.60;;;18.40;99.90;;;;;;5031381;28;20542;-71
2022/08/05 06:49:17;;;;;;;2.40;1.00;;;18.50;99.90;;;;;;5038174;28;20119;-71
2022/08/05 06:51:43;;;;;;;4.03;1.10;;;18.50;99.90;;;;;;5047824;28;20072;-71
2022/08/05 06:54:12;;;;;;;2.47;1.10;;;18.50;99.90;;;;;;5035658;28;20140;-71
2022/08/05 06:56:37;;;;;;;1.77;0.50;;;18.60;99.90;;;;;;5027620;28;20143;-71
2022/08/05 06:59:04;;;;;;;1.30;0.63;;;18.50;99.90;;;;;;5029887;28;20099;-71
2022/08/05 07:01:30;;;;;;;1.60;0.70;;;18.50;99.90;;;;;;5034505;28;20080;-71
2022/08/05 07:03:55;;;;;;;2.28;0.50;;;18.60;99.90;;;;;;5029958;28;20352;-71
2022/08/05 07:06:22;;;;;;;1.20;0.52;;;18.70;99.90;;;;;;5028326;28;20049;-71
2022/08/05 07:08:48;;;;;;;1.40;0.68;;;18.70;99.90;;;;;;5027846;28;20046;-71
2022/08/05 07:11:14;;;;;;;1.08;0.40;;;18.60;99.90;;;;;;5029539;28;20119;-70
2022/08/05 07:19:07;;;;;;;3.10;0.50;;;18.80;99.90;;;;;;5046944;28;20041;-71
2022/08/05 07:21:33;;;;;;;1.25;0.60;;;18.80;99.90;;;;;;5038949;28;20064;-71
2022/08/05 07:23:59;;;;;;;2.17;0.52;;;18.80;99.90;;;;;;5046540;28;20087;-71
2022/08/05 07:26:24;;;;;;;2.15;0.80;;;19.00;99.90;;;;;;5048195;28;20040;-71
2022/08/05 07:28:50;;;;;;;1.83;0.35;;;19.00;99.90;;;;;;5041562;28;20051;-70
2022/08/05 07:31:16;;;;;;;0.93;0.50;;;19.00;99.90;;;;;;5028437;28;20034;-71
2022/08/05 07:33:42;;;;;;;;;;;19.10;99.90;;;;;;5031156;28;20155;-70
2022/08/05 07:36:08;;;;;;;1.17;0.50;;;19.10;99.90;;;;;;5037257;28;19993;-71
2022/08/05 07:38:35;;;;;;;1.15;0.35;;;19.20;99.90;;;;;;5029603;28;20041;-71
2022/08/05 07:41:06;;;;;;;1.88;0.30;;;19.30;99.90;;;;;;5010859;28;20151;-71
2022/08/05 07:43:31;;;;;;;0.80;0.40;;;19.30;99.90;;;;;;5045722;28;20346;-71
2022/08/05 07:45:57;;;;;;;1.92;0.93;;;19.30;99.90;;;;;;5032759;28;20052;-71
2022/08/05 07:48:23;;;;;;;0.80;0.40;;;19.40;99.90;;;;;;5037958;28;20038;-71
2022/08/05 07:50:48;;;;;;;0.63;0.40;;;19.30;99.90;;;;;;5046457;28;20048;-71
2022/08/05 07:53:14;;;;;;;5.50;1.40;;;19.30;99.90;;;;;;5040566;28;20103;-71
2022/08/05 07:55:39;;;;;;;1.98;0.47;;;19.30;99.90;;;;;;5028876;28;20061;-71
2022/08/05 07:58:05;;;;;;;1.92;0.65;;;19.40;99.90;;;;;;5032209;28;20445;-70
2022/08/05 08:00:31;;;;;;;0.73;0.40;;;19.50;99.90;;;;;;5045068;28;20067;-71
2022/08/05 08:02:56;;;;;;;2.22;0.40;;;19.60;99.90;;;;;;5047665;28;20505;-71
2022/08/05 08:05:22;;;;;;;0.63;0.30;;;19.50;99.90;;;;;;5038462;28;20040;-71
2022/08/05 08:07:48;;;;;;;1.42;0.50;;;19.50;99.90;;;;;;5028407;28;20367;-71
2022/08/05 08:10:14;;;;;;;0.57;0.28;;;19.40;99.90;;;;;;5031895;28;20481;-71
2022/08/05 08:12:39;;;;;;;0.88;0.43;;;19.50;99.90;;;;;;5028405;28;20559;-71
2022/08/05 08:15:09;;;;;;;3.63;0.45;;;19.50;99.90;;;;;;5031815;28;20049;-71
2022/08/05 08:17:35;;;;;;;0.80;0.40;;;19.60;99.90;;;;;;5037189;28;20082;-71
2022/08/05 08:20:03;;;;;;;0.73;0.40;;;19.60;99.90;;;;;;5030693;28;20111;-71
2022/08/05 08:22:29;;;;;;;0.40;0.15;;;19.60;99.90;;;;;;5026702;28;20482;-70
2022/08/05 08:24:54;;;;;;;2.00;0.40;;;19.70;99.90;;;;;;5041800;28;20043;-70
2022/08/05 08:27:21;;;;;;;1.27;0.40;;;19.70;99.90;;;;;;5033484;28;20041;-71
2022/08/05 08:29:47;;;;;;;;;;;19.70;99.90;;;;;;5043867;28;20112;-71
2022/08/05 08:32:12;;;;;;;0.20;0.13;;;19.70;99.90;;;;;;5041092;28;20011;-71
2022/08/05 08:34:38;;;;;;;1.27;0.60;;;19.70;99.90;;;;;;5056821;22;20098;-71
2022/08/05 08:37:03;;;;;;;3.13;0.40;;;19.80;99.90;;;;;;5036790;28;20068;-71
2022/08/05 08:39:29;;;;;;;0.80;0.32;;;19.80;99.90;;;;;;5037605;28;20131;-71
2022/08/05 08:41:55;;;;;;;0.43;0.28;;;19.80;99.90;;;;;;5051512;28;20043;-71
2022/08/05 08:44:23;;;;;;;0.45;0.30;;;19.70;99.90;;;;;;5036051;28;20067;-71
2022/08/05 08:46:50;;;;;;;2.00;0.30;;;19.80;99.90;;;;;;5050941;28;20481;-71
2022/08/05 08:49:19;;;;;;;2.42;0.40;;;19.80;99.90;;;;;;5037631;28;20420;-71
2022/08/05 08:51:57;;;;;;;2.95;0.55;;;19.90;99.90;;;;;;5033510;28;20088;-71
2022/08/05 08:54:24;;;;;;;1.08;0.35;;;19.90;99.90;;;;;;5032514;28;20053;-71
2022/08/05 08:56:50;;;;;;;2.17;0.47;;;19.90;99.90;;;;;;5037129;28;20102;-71
2022/08/05 08:59:18;;;;;;;0.90;0.20;;;19.90;99.90;;;;;;5034332;28;20041;-71
2022/08/05 09:01:44;;;;;;;1.55;0.38;;;20.10;99.90;;;;;;5043090;28;20037;-70
2022/08/05 09:04:12;;;;;;;1.13;0.28;;;20.10;99.90;;;;;;5045793;28;20075;-71
2022/08/05 09:06:38;;;;;;;1.38;0.20;;;20.30;99.90;;;;;;5048657;28;20116;-71
2022/08/05 09:09:04;;;;;;;1.08;0.30;;;20.30;99.90;;;;;;5019816;28;20116;-71
2022/08/05 09:11:32;;;;;;;1.77;0.40;;;20.20;99.90;;;;;;5046219;28;20651;-71
2022/08/05 09:13:59;;;;;;;1.95;0.28;;;20.20;99.90;;;;;;5042966;28;20037;-71
2022/08/05 09:16:26;;;;;;;0.75;0.17;;;20.10;99.90;;;;;;5045428;28;20053;-77
2022/08/05 09:18:52;;;;;;;0.55;0.30;;;20.10;99.90;;;;;;5045303;28;20029;-73
2022/08/05 09:21:18;;;;;;;;;;;20.20;99.90;;;;;;5041896;28;20049;-72
2022/08/05 09:23:44;;;;;;;3.47;0.40;;;20.30;99.90;;;;;;5035759;28;19920;-74
2022/08/05 09:26:18;;;;;;;0.63;0.20;;;20.30;99.90;;;;;;5044286;28;20072;-74
2022/08/05 09:28:46;;;;;;;0.38;0.20;;;20.20;99.90;;;;;;5046809;28;20069;-74
2022/08/05 09:31:14;;;;;;;1.08;0.38;;;20.20;99.90;;;;;;5047578;28;20182;-73
2022/08/05 09:34:01;;;;;;;1.05;0.30;;;20.20;99.90;;;;;;5043274;28;20041;-74
2022/08/05 09:36:51;;;;;;;1.10;0.38;;;20.20;99.10;;;;;;5028946;28;20041;-74
2022/08/05 09:39:18;;;;;;;2.28;0.40;;;20.40;99.90;;;;;;5043370;28;20553;-72
2022/08/05 09:41:56;;;;;;;1.08;0.10;;;20.40;99.90;;;;;;5048369;28;20041;-74
2022/08/05 09:44:41;;;;;;;0.38;0.20;;;20.40;99.90;;;;;;5043684;28;20060;-72
2022/08/05 09:47:21;;;;;;;0.47;0.10;;;20.50;99.90;;;;;;5042830;28;20100;-74
2022/08/05 09:49:55;;;;;;;0.32;0.20;;;20.60;99.90;;;;;;5044288;28;20401;-74
2022/08/05 09:52:33;;;;;;;0.75;0.20;;;20.70;99.90;;;;;;5045130;28;20045;-73
2022/08/05 09:55:07;;;;;;;0.90;0.30;;;20.70;99.90;;;;;;5036079;28;20094;-75
2022/08/05 09:57:42;;;;;;;0.57;0.30;;;20.70;99.90;;;;;;5045235;28;20040;-71
2022/08/05 10:00:16;;;;;;;0.60;0.17;;;20.90;99.90;;;;;;5040848;28;20052;-71
2022/08/05 10:02:44;;;;;;;3.65;0.30;;;20.90;99.90;;;;;;5040036;28;20032;-73
2022/08/05 10:05:13;;;;;;;0.30;0.10;;;21.00;99.90;;;;;;5039370;28;20057;-73
2022/08/05 10:07:47;;;;;;;0.28;0.10;;;21.00;98.10;;;;;;5045815;28;20405;-75
2022/08/05 10:10:13;;;;;;;0.32;0.10;;;21.20;96.30;;;;;;5040543;28;20097;-73
2022/08/05 10:12:44;;;;;;;0.57;0.17;;;21.20;93.60;;;;;;5039752;28;20040;-72
2022/08/05 10:15:17;;;;;;;2.05;0.30;;;21.20;89.90;;;;;;5044367;28;20588;-71
2022/08/05 10:17:43;;;;;;;0.03;0.00;;;21.20;83.10;;;;;;5024518;28;20040;-71
2022/08/05 10:20:11;;;;;;;0.77;0.20;;;21.20;83.50;;;;;;5044289;28;20037;-74
2022/08/05 10:22:39;;;;;;;0.20;0.10;;;21.20;85.80;;;;;;5032978;28;20124;-72
2022/08/05 10:25:05;;;;;;;1.13;0.10;;;21.20;85.50;;;;;;5030532;28;20465;-72
2022/08/05 10:27:31;;;;;;;1.08;0.30;;;21.30;89.00;;;;;;5031413;28;20079;-73
2022/08/05 10:29:57;;;;;;;0.55;0.10;;;21.50;88.00;;;;;;5041440;28;20052;-74
2022/08/05 10:32:23;;;;;;;0.38;0.10;;;21.60;86.60;;;;;;5045373;28;20076;-75
2022/08/05 10:34:49;;;;;;;;;;;21.60;85.60;;;;;;5040890;28;20053;-72
2022/08/05 10:37:15;;;;;;;0.32;0.00;;;21.60;84.10;;;;;;5033393;28;20439;-73
2022/08/05 10:39:43;;;;;;;;;;;21.70;87.40;;;;;;5037161;28;20145;-74
2022/08/05 10:42:15;;;;;;;0.22;0.10;;;21.60;81.70;;;;;;5034736;28;19917;-73
2022/08/05 10:44:47;;;;;;;0.28;0.10;;;21.50;85.30;;;;;;5023840;28;20099;-74
2022/08/05 10:47:15;;;;;;;1.38;0.28;;;21.50;84.90;;;;;;5048056;28;20079;-74
2022/08/05 10:50:10;;;;;;;0.65;0.20;;;21.50;85.10;;;;;;5047121;28;20086;-71
2022/08/05 10:52:37;;;;;;;0.65;0.15;;;21.60;87.00;;;;;;5047852;28;20151;-74
2022/08/05 10:55:09;;;;;;;0.57;0.10;;;21.80;86.10;;;;;;5051832;28;20037;-71
2022/08/05 10:57:40;;;;;;;0.15;0.10;;;21.90;85.30;;;;;;5044205;28;20163;-71
2022/08/05 11:00:32;;;;;;;0.30;0.20;;;21.90;83.60;;;;;;5047511;28;20207;-71
2022/08/05 11:03:09;;;;;;;0.22;0.10;;;22.00;84.70;;;;;;5034663;28;20642;-71
2022/08/05 11:05:36;;;;;;;0.03;0.03;;;21.90;82.80;;;;;;5046571;28;20041;-71
2022/08/05 11:08:07;;;;;;;0.50;0.17;;;21.80;86.40;;;;;;5049997;28;20050;-71
2022/08/05 11:10:36;;;;;;;0.93;0.20;;;21.70;87.30;;;;;;5047117;28;20904;-71
2022/08/05 11:13:02;;;;;;;0.25;0.10;;;21.60;87.60;;;;;;5048937;28;20109;-71
2022/08/05 11:15:34;;;;;;;1.30;0.30;;;21.60;88.60;;;;;;5040494;28;20088;-71
2022/08/05 11:18:26;;;;;;;2.33;0.20;;;21.50;88.80;;;;;;5042153;28;20041;-71
2022/08/05 11:20:52;;;;;;;0.63;0.10;;;21.60;90.10;;;;;;5043870;28;20052;-71
2022/08/05 11:23:36;;;;;;;;;;;21.90;90.10;;;;;;5044300;28;20132;-71
2022/08/05 11:26:08;;;;;;;0.55;0.10;;;21.90;85.90;;;;;;5027991;28;19920;-71
2022/08/05 11:28:33;;;;;;;0.55;0.30;;;21.90;88.00;;;;;;5039150;28;20033;-71
2022/08/05 11:31:02;;;;;;;;;;;21.90;86.60;;;;;;5040571;28;20064;-71
2022/08/05 11:33:36;;;;;;;0.32;0.10;;;21.80;86.30;;;;;;5044405;28;19923;-71
2022/08/05 11:36:04;;;;;;;1.25;0.30;;;21.60;86.70;;;;;;5049437;28;20401;-71
2022/08/05 11:38:42;;;;;;;0.22;0.00;;;21.60;86.60;;;;;;5045465;28;20048;-71
2022/08/05 11:41:12;;;;;;;0.80;0.10;;;21.30;86.70;;;;;;5041077;28;20037;-71
2022/08/05 11:43:38;;;;;;;1.20;0.22;;;21.20;88.10;;;;;;5045377;28;20268;-72
2022/08/05 11:46:04;;;;;;;0.00;0.00;;;21.10;90.20;;;;;;5041231;28;20044;-71
2022/08/05 11:48:30;;;;;;;;;;;21.10;91.00;;;;;;5042915;28;20033;-71
2022/08/05 11:50:55;;;;;;;0.75;0.20;;;21.20;91.60;;;;;;5046902;28;19936;-71
2022/08/05 11:53:22;;;;;;;;;;;21.20;92.50;;;;;;5039463;28;20044;-71
2022/08/05 11:56:00;;;;;;;7.90;0.47;;;21.20;87.30;;;;;;5046600;28;19924;-72
2022/08/05 11:58:34;;;;;;;0.45;0.10;;;21.20;88.20;;;;;;5042961;28;20095;-71
2022/08/05 12:01:05;;;;;;;0.65;0.10;;;21.20;89.30;;;;;;5041905;28;20128;-71
2022/08/05 12:03:40;;;;;;;0.00;0.00;;;21.30;90.20;;;;;;5045394;28;20087;-71
2022/08/05 12:06:05;;;;;;;0.88;0.05;;;21.30;90.20;;;;;;5040169;28;20040;-71
2022/08/05 12:08:31;;;;;;;;;;;21.20;90.30;;;;;;5047575;28;20029;-71
2022/08/05 12:10:59;;;;;;;0.82;0.20;;;21.10;89.50;;;;;;5041165;28;20076;-71
2022/08/05 12:13:25;;;;;;;0.88;0.17;;;21.10;91.20;;;;;;5042356;28;20339;-71
2022/08/05 12:15:50;;;;;;;;;;;21.10;91.00;;;;;;5048266;28;20048;-71
2022/08/05 12:18:18;;;;;;;1.15;0.20;;;21.00;88.30;;;;;;5043333;28;20041;-71
2022/08/05 12:20:43;;;;;;;0.75;0.20;;;21.10;90.70;;;;;;5043474;28;20041;-71
2022/08/05 12:23:10;;;;;;;;;;;21.10;91.10;;;;;;5035161;28;20120;-71
2022/08/05 12:25:52;;;;;;;0.10;0.10;;;21.20;91.60;;;;;;5040984;28;19916;-71
2022/08/05 12:28:35;;;;;;;0.57;0.10;;;21.30;91.40;;;;;;5037188;28;20140;-71
2022/08/05 12:31:01;;;;;;;2.38;0.30;;;21.40;90.40;;;;;;5044107;28;20037;-71
2022/08/05 12:33:27;;;;;;;0.40;0.10;;;21.30;90.00;;;;;;5033690;28;20686;-71
2022/08/05 12:35:54;;;;;;;1.23;0.20;;;21.30;90.00;;;;;;5034694;28;20044;-71
2022/08/05 12:38:21;;;;;;;1.17;0.10;;;21.40;90.40;;;;;;5021035;28;20045;-71
2022/08/05 12:40:48;;;;;;;0.20;0.10;;;21.50;90.00;;;;;;5043013;28;20559;-71
2022/08/05 12:43:13;;;;;;;0.43;0.10;;;21.50;89.30;;;;;;5042537;28;20041;-72
2022/08/05 12:45:59;;;;;;;;;;;21.50;90.10;;;;;;5042069;28;20044;-71
2022/08/05 12:48:25;;;;;;;0.43;0.13;;;21.40;89.20;;;;;;5037859;28;19960;-71
2022/08/05 12:51:09;;;;;;;;;;;21.30;89.20;;;;;;5037749;28;20061;-71
2022/08/05 12:53:41;;;;;;;0.38;0.10;;;21.20;87.40;;;;;;5038591;28;19923;-71
2022/08/05 12:56:18;;;;;;;0.38;0.10;;;21.20;89.40;;;;;;5039537;28;20409;-71
2022/08/05 12:58:44;;;;;;;0.35;0.10;;;21.20;88.20;;;;;;5038066;28;20120;-72
2022/08/05 13:01:12;;;;;;;;;;;21.20;90.00;;;;;;5025464;28;20124;-71
2022/08/05 13:03:38;;;;;;;0.30;0.15;;;21.30;87.30;;;;;;5039982;28;19944;-71
2022/08/05 13:06:06;;;;;;;0.30;0.10;;;21.30;89.20;;;;;;5042462;28;20076;-71